Time;durP1;ratioP1;P1;durP2;ratioP2;P2;SDS_P1;SDS_P2;PMS_P1;PMS_P2;Temp;Humidity;BMP_temperature;BMP_pressure;BME280_temperature;BME280_humidity;BME280_pressure;Samples;Min_cycle;Max_cycle;Signal;HPM_P1;HPM_P2
2021/12/26 00:00:55;;;;;;;1.85;1.75;;;22.00;48.80;;;;;;5036388;28;20178;-71
2021/12/26 00:03:24;;;;;;;1.85;1.75;;;22.00;49.10;;;;;;5052872;28;20599;-71
2021/12/26 00:05:51;;;;;;;1.90;1.80;;;22.00;48.80;;;;;;5052864;28;20273;-72
2021/12/26 00:08:21;;;;;;;1.92;1.83;;;21.90;48.80;;;;;;5052767;28;20182;-71
2021/12/26 00:10:48;;;;;;;1.85;1.75;;;21.90;48.70;;;;;;5036183;28;20183;-71
2021/12/26 00:13:19;;;;;;;1.65;1.55;;;21.90;48.70;;;;;;5052957;28;20206;-71
2021/12/26 00:15:45;;;;;;;2.50;2.30;;;21.90;48.70;;;;;;5054116;28;20170;-71
2021/12/26 00:18:12;;;;;;;1.88;1.77;;;22.00;48.70;;;;;;5052846;28;20663;-72
2021/12/26 00:20:39;;;;;;;1.73;1.63;;;21.90;48.70;;;;;;5036119;28;20194;-72
2021/12/26 00:23:06;;;;;;;1.70;1.60;;;22.00;48.80;;;;;;5063973;23;20237;-69
2021/12/26 00:25:33;;;;;;;1.60;1.50;;;21.90;48.70;;;;;;5073293;28;20173;-68
2021/12/26 00:28:00;;;;;;;1.60;1.50;;;21.90;48.70;;;;;;5055582;28;20216;-69
2021/12/26 00:30:26;;;;;;;1.75;1.65;;;21.90;48.70;;;;;;5072553;28;20182;-68
2021/12/26 00:32:53;;;;;;;1.85;1.73;;;21.90;48.70;;;;;;5052775;28;20230;-67
2021/12/26 00:35:22;;;;;;;1.70;1.60;;;21.90;48.70;;;;;;5036154;28;20178;-69
2021/12/26 00:37:49;;;;;;;1.60;1.50;;;21.90;48.70;;;;;;5052199;28;20187;-69
2021/12/26 00:40:19;;;;;;;1.65;1.55;;;21.90;48.70;;;;;;5036006;28;20190;-69
2021/12/26 00:42:48;;;;;;;1.52;1.42;;;21.90;48.70;;;;;;5035596;28;20594;-69
2021/12/26 00:45:14;;;;;;;1.77;1.48;;;21.90;48.70;;;;;;5035922;28;20179;-69
2021/12/26 00:47:41;;;;;;;1.90;1.80;;;21.90;48.70;;;;;;5053109;28;20736;-69
2021/12/26 00:50:12;;;;;;;1.70;1.60;;;21.90;48.70;;;;;;5035393;28;20638;-69
2021/12/26 00:52:37;;;;;;;2.25;2.05;;;21.90;48.70;;;;;;5035631;28;20193;-69
2021/12/26 00:55:09;;;;;;;1.88;1.77;;;21.90;48.70;;;;;;5035512;28;20190;-69
2021/12/26 00:57:35;;;;;;;2.33;2.13;;;21.90;48.70;;;;;;5035221;28;20186;-69
2021/12/26 01:00:06;;;;;;;2.20;2.00;;;21.90;48.70;;;;;;5035341;28;20187;-69
2021/12/26 01:02:32;;;;;;;2.47;2.20;;;21.90;48.60;;;;;;5053169;28;20206;-69
2021/12/26 01:04:58;;;;;;;1.58;1.48;;;21.90;48.60;;;;;;5035530;28;20308;-69
2021/12/26 01:07:37;;;;;;;1.70;1.60;;;21.90;48.60;;;;;;5035041;28;20351;-69
2021/12/26 01:10:06;;;;;;;1.77;1.67;;;21.90;48.60;;;;;;5035698;28;20163;-69
2021/12/26 01:12:32;;;;;;;1.73;1.58;;;21.90;48.60;;;;;;5035406;28;20244;-69
2021/12/26 01:15:04;;;;;;;1.60;1.50;;;21.90;48.70;;;;;;5035466;28;20163;-69
2021/12/26 01:17:36;;;;;;;1.67;1.58;;;21.90;48.60;;;;;;5035519;28;20265;-69
2021/12/26 01:20:18;;;;;;;1.63;1.52;;;21.90;48.60;;;;;;5051513;28;20186;-69
2021/12/26 01:22:45;;;;;;;1.88;1.73;;;21.90;48.60;;;;;;5035087;28;20313;-69
2021/12/26 01:25:14;;;;;;;1.95;1.77;;;21.90;48.60;;;;;;5034978;28;20192;-69
2021/12/26 01:27:40;;;;;;;2.00;1.90;;;21.90;48.60;;;;;;5034536;28;20214;-68
2021/12/26 01:30:08;;;;;;;2.22;2.03;;;21.90;48.70;;;;;;5034823;28;20728;-69
2021/12/26 01:32:38;;;;;;;2.20;2.00;;;21.90;48.60;;;;;;5034896;28;20183;-69
2021/12/26 01:35:07;;;;;;;2.47;2.28;;;21.90;48.60;;;;;;5035050;28;20265;-69
2021/12/26 01:38:13;;;;;;;1.77;1.67;;;21.90;48.60;;;;;;5037720;28;20308;-69
2021/12/26 01:41:10;;;;;;;1.85;1.75;;;21.90;48.60;;;;;;5028626;28;20190;-69
2021/12/26 01:44:03;;;;;;;1.88;1.77;;;21.90;48.60;;;;;;5021313;28;20210;-68
2021/12/26 01:46:49;;;;;;;2.00;1.90;;;21.90;48.60;;;;;;5035055;28;20206;-68
2021/12/26 01:49:24;;;;;;;2.05;1.83;;;21.90;48.60;;;;;;5034524;28;20183;-68
2021/12/26 01:51:56;;;;;;;2.08;1.83;;;21.90;48.60;;;;;;5035104;28;20648;-69
2021/12/26 01:54:38;;;;;;;2.08;1.88;;;21.90;48.60;;;;;;5034993;28;20198;-69
2021/12/26 01:57:10;;;;;;;1.75;1.65;;;21.90;48.60;;;;;;5034728;28;20189;-69
2021/12/26 01:59:37;;;;;;;1.73;1.63;;;21.90;48.60;;;;;;5034379;28;20190;-69
2021/12/26 02:02:10;;;;;;;1.70;1.60;;;21.90;48.60;;;;;;5034764;28;20221;-69
2021/12/26 02:04:40;;;;;;;1.67;1.58;;;21.90;48.60;;;;;;5034331;28;20198;-69
2021/12/26 02:07:09;;;;;;;2.20;2.10;;;21.90;48.60;;;;;;5050928;28;20635;-69
2021/12/26 02:09:36;;;;;;;2.10;1.92;;;21.90;48.60;;;;;;5051126;28;20179;-69
2021/12/26 02:12:06;;;;;;;2.10;1.90;;;21.90;48.70;;;;;;5034438;28;20178;-69
2021/12/26 02:14:32;;;;;;;2.20;2.00;;;21.90;49.10;;;;;;5034347;28;20210;-69
2021/12/26 02:17:17;;;;;;;2.20;2.00;;;21.90;48.50;;;;;;5051541;28;20253;-69
2021/12/26 02:19:44;;;;;;;2.05;1.95;;;21.90;48.60;;;;;;5034276;28;20191;-67
2021/12/26 02:22:16;;;;;;;2.10;1.90;;;21.90;48.60;;;;;;5034212;28;20182;-68
2021/12/26 02:25:12;;;;;;;1.90;1.80;;;21.90;48.80;;;;;;5050791;28;20279;-69
2021/12/26 02:27:43;;;;;;;1.80;1.70;;;21.90;48.50;;;;;;5034072;28;20221;-68
2021/12/26 02:30:16;;;;;;;1.70;1.60;;;21.80;48.40;;;;;;5034204;28;20277;-69
2021/12/26 02:32:48;;;;;;;2.13;1.95;;;21.90;48.50;;;;;;5034286;28;20229;-69
2021/12/26 02:35:15;;;;;;;2.13;1.92;;;21.90;48.50;;;;;;5034482;28;20187;-69
2021/12/26 02:37:44;;;;;;;2.38;2.00;;;21.90;48.50;;;;;;5034144;28;20178;-69
2021/12/26 02:40:13;;;;;;;1.80;1.70;;;21.90;48.40;;;;;;5034367;28;20213;-69
2021/12/26 02:42:39;;;;;;;2.30;2.10;;;21.90;48.40;;;;;;5034362;28;20678;-69
2021/12/26 02:45:06;;;;;;;2.17;1.98;;;21.80;48.40;;;;;;5014667;28;20187;-69
2021/12/26 02:47:43;;;;;;;2.45;2.25;;;21.80;48.40;;;;;;4999070;28;20215;-69
2021/12/26 02:50:19;;;;;;;2.22;2.03;;;21.90;48.40;;;;;;5001709;28;20258;-68
2021/12/26 02:52:45;;;;;;;1.70;1.60;;;21.80;48.40;;;;;;5001566;28;20195;-69
2021/12/26 02:55:15;;;;;;;1.77;1.52;;;21.80;48.40;;;;;;5018224;28;20188;-69
2021/12/26 02:57:59;;;;;;;2.00;1.90;;;21.90;48.50;;;;;;5017900;28;20176;-69
2021/12/26 03:00:30;;;;;;;2.13;1.92;;;21.90;48.40;;;;;;5001565;28;20203;-69
2021/12/26 03:03:04;;;;;;;1.83;1.65;;;21.90;48.40;;;;;;5018032;28;20207;-69
2021/12/26 03:05:36;;;;;;;1.90;1.80;;;21.80;48.30;;;;;;5002227;28;20191;-69
2021/12/26 03:08:05;;;;;;;2.15;1.95;;;21.80;48.40;;;;;;5001180;28;20624;-68
2021/12/26 03:10:31;;;;;;;2.15;1.95;;;21.90;48.40;;;;;;5001600;28;20187;-69
2021/12/26 03:13:05;;;;;;;2.30;2.10;;;21.80;48.40;;;;;;5001105;28;20204;-69
2021/12/26 03:15:32;;;;;;;2.22;2.03;;;21.80;48.40;;;;;;5018037;28;20631;-69
2021/12/26 03:18:00;;;;;;;1.80;1.70;;;21.80;48.30;;;;;;5000460;28;20191;-69
2021/12/26 03:20:31;;;;;;;2.05;1.92;;;21.80;48.40;;;;;;5017356;28;20186;-68
2021/12/26 03:23:00;;;;;;;1.85;1.70;;;21.90;48.40;;;;;;5017390;28;20215;-69
2021/12/26 03:25:28;;;;;;;1.55;1.45;;;21.80;48.40;;;;;;5017780;28;20269;-69
2021/12/26 03:27:55;;;;;;;1.75;1.65;;;21.90;48.40;;;;;;5001158;28;20215;-69
2021/12/26 03:30:25;;;;;;;1.83;1.73;;;21.90;48.40;;;;;;5017368;28;20188;-69
2021/12/26 03:32:57;;;;;;;1.88;1.77;;;21.90;48.40;;;;;;5017994;28;20207;-69
2021/12/26 03:35:26;;;;;;;1.92;1.83;;;21.80;48.30;;;;;;5040707;28;20194;-69
2021/12/26 03:37:53;;;;;;;1.67;1.58;;;21.80;48.30;;;;;;5033326;28;20238;-69
2021/12/26 03:40:54;;;;;;;2.00;1.80;;;21.80;48.30;;;;;;5021759;28;20202;-69
2021/12/26 03:43:22;;;;;;;2.10;1.90;;;21.80;48.30;;;;;;5000746;28;20318;-69
2021/12/26 03:45:51;;;;;;;2.10;2.00;;;21.80;48.30;;;;;;5000767;28;20279;-69
2021/12/26 03:48:21;;;;;;;2.42;2.10;;;21.80;48.30;;;;;;5000633;28;20209;-69
2021/12/26 03:50:47;;;;;;;1.98;1.77;;;21.80;48.30;;;;;;5017187;28;20218;-69
2021/12/26 03:53:14;;;;;;;1.83;1.73;;;21.80;48.30;;;;;;5016957;28;20242;-69
2021/12/26 03:55:45;;;;;;;1.98;1.88;;;21.90;48.40;;;;;;5001785;28;20221;-69
2021/12/26 03:58:13;;;;;;;1.80;1.70;;;21.80;48.30;;;;;;5000278;28;20270;-69
2021/12/26 04:00:42;;;;;;;1.80;1.70;;;21.90;48.40;;;;;;5016533;28;20318;-69
2021/12/26 04:03:08;;;;;;;1.58;1.48;;;21.90;48.40;;;;;;5000627;28;20199;-69
2021/12/26 04:05:42;;;;;;;1.90;1.80;;;21.80;48.30;;;;;;5017201;28;20184;-69
2021/12/26 04:08:08;;;;;;;1.70;1.60;;;21.80;48.30;;;;;;5000485;28;20225;-69
2021/12/26 04:10:34;;;;;;;1.45;1.35;;;21.80;48.30;;;;;;5000388;28;20183;-69
2021/12/26 04:13:01;;;;;;;1.60;1.50;;;21.80;48.90;;;;;;5000860;28;20206;-69
2021/12/26 04:15:27;;;;;;;1.48;1.38;;;21.90;51.60;;;;;;5000464;28;20183;-69
2021/12/26 04:17:56;;;;;;;1.80;1.70;;;21.80;48.40;;;;;;5016470;28;20183;-68
2021/12/26 04:20:25;;;;;;;1.65;1.55;;;21.80;48.30;;;;;;5000637;28;20183;-69
2021/12/26 04:22:52;;;;;;;2.05;1.85;;;21.90;48.40;;;;;;5000295;28;20222;-69
2021/12/26 04:25:21;;;;;;;1.85;1.75;;;21.90;48.40;;;;;;5016761;28;20195;-69
2021/12/26 04:27:48;;;;;;;1.63;1.52;;;21.80;48.40;;;;;;4999869;28;20211;-69
2021/12/26 04:30:16;;;;;;;1.92;1.83;;;21.90;48.40;;;;;;5000126;28;20231;-69
2021/12/26 04:32:42;;;;;;;1.95;1.80;;;21.90;48.40;;;;;;5016363;28;20233;-69
2021/12/26 04:35:09;;;;;;;1.67;1.58;;;21.80;48.30;;;;;;5000279;28;20243;-69
2021/12/26 04:37:35;;;;;;;1.50;1.40;;;21.80;48.30;;;;;;4999664;28;20195;-68
2021/12/26 04:40:07;;;;;;;1.58;1.48;;;21.80;48.30;;;;;;5000026;28;20271;-69
2021/12/26 04:42:50;;;;;;;1.67;1.55;;;21.80;48.30;;;;;;5002139;28;20237;-69
2021/12/26 04:45:29;;;;;;;1.40;1.30;;;21.80;48.30;;;;;;5001775;28;20561;-69
2021/12/26 04:48:24;;;;;;;1.85;1.75;;;21.80;48.30;;;;;;5019531;28;20210;-69
2021/12/26 04:50:50;;;;;;;2.00;1.90;;;21.80;48.30;;;;;;4999623;28;20187;-69
2021/12/26 04:53:16;;;;;;;1.58;1.48;;;21.80;48.30;;;;;;5015866;28;20218;-69
2021/12/26 04:55:41;;;;;;;1.70;1.60;;;21.90;48.30;;;;;;4999491;28;20209;-69
2021/12/26 04:58:07;;;;;;;1.50;1.40;;;21.90;48.40;;;;;;4999352;28;20221;-69
2021/12/26 05:00:34;;;;;;;1.63;1.52;;;21.80;48.80;;;;;;4999698;28;20564;-69
2021/12/26 05:03:07;;;;;;;1.50;1.40;;;21.80;48.20;;;;;;4999563;28;20212;-69
2021/12/26 05:05:34;;;;;;;1.50;1.40;;;21.80;48.20;;;;;;5033382;28;20180;-69
2021/12/26 05:08:00;;;;;;;1.70;1.60;;;21.80;48.30;;;;;;4999124;28;20297;-69
2021/12/26 05:10:29;;;;;;;1.38;1.27;;;21.80;48.20;;;;;;4998918;28;20182;-69
2021/12/26 05:13:01;;;;;;;1.77;1.67;;;21.80;48.30;;;;;;5015278;28;20203;-69
2021/12/26 05:15:27;;;;;;;1.10;1.10;;;21.80;48.30;;;;;;4999127;28;20193;-69
2021/12/26 05:17:55;;;;;;;1.50;1.40;;;21.90;48.40;;;;;;5032841;28;20207;-69
2021/12/26 05:20:26;;;;;;;1.70;1.60;;;21.80;48.60;;;;;;4999242;28;20194;-68
2021/12/26 05:22:54;;;;;;;1.60;1.50;;;21.80;48.60;;;;;;5015386;28;20639;-69
2021/12/26 05:25:23;;;;;;;1.10;1.10;;;21.80;48.40;;;;;;4999127;28;20186;-69
2021/12/26 05:27:52;;;;;;;1.50;1.40;;;21.90;48.40;;;;;;5015047;28;20210;-68
2021/12/26 05:30:21;;;;;;;1.45;1.35;;;21.80;48.30;;;;;;5015311;28;20179;-68
2021/12/26 05:32:52;;;;;;;1.60;1.50;;;21.90;49.20;;;;;;5015153;28;20214;-69
2021/12/26 05:35:18;;;;;;;1.67;1.52;;;21.80;48.30;;;;;;5015440;28;20183;-69
2021/12/26 05:37:46;;;;;;;1.40;1.30;;;21.80;48.20;;;;;;4998702;28;20188;-69
2021/12/26 05:40:14;;;;;;;1.63;1.52;;;21.80;48.20;;;;;;4999177;28;20273;-69
2021/12/26 05:42:41;;;;;;;2.05;1.50;;;21.80;48.20;;;;;;5015364;28;20252;-69
2021/12/26 05:45:09;;;;;;;1.65;1.55;;;21.80;49.20;;;;;;5015162;28;20190;-69
2021/12/26 05:47:45;;;;;;;1.40;1.30;;;21.80;48.00;;;;;;5014887;28;20264;-68
2021/12/26 05:50:16;;;;;;;1.50;1.40;;;21.80;48.10;;;;;;5015083;28;20233;-68
2021/12/26 05:52:44;;;;;;;1.33;1.23;;;21.80;48.00;;;;;;4998892;28;20819;-69
2021/12/26 05:55:17;;;;;;;1.60;1.25;;;21.80;48.00;;;;;;5015413;28;20693;-69
2021/12/26 05:57:46;;;;;;;1.30;1.20;;;21.80;48.00;;;;;;4999348;28;20203;-69
2021/12/26 06:00:16;;;;;;;1.35;1.25;;;21.80;48.00;;;;;;5015303;28;20607;-69
2021/12/26 06:02:42;;;;;;;1.40;1.30;;;21.80;48.00;;;;;;5015123;28;20188;-69
2021/12/26 06:05:10;;;;;;;1.30;1.20;;;21.80;48.00;;;;;;5015281;28;20670;-69
2021/12/26 06:07:37;;;;;;;1.50;1.40;;;21.80;48.00;;;;;;5015233;28;20294;-69
2021/12/26 06:10:07;;;;;;;2.25;1.60;;;21.80;48.00;;;;;;4998580;28;20210;-69
2021/12/26 06:12:34;;;;;;;1.50;1.40;;;21.80;48.00;;;;;;4998629;28;20561;-69
2021/12/26 06:15:02;;;;;;;1.55;1.45;;;21.80;48.00;;;;;;4998526;28;20183;-69
2021/12/26 06:17:31;;;;;;;1.40;1.30;;;21.80;48.00;;;;;;5014999;28;20194;-68
2021/12/26 06:20:15;;;;;;;1.38;1.27;;;21.80;48.00;;;;;;5017490;28;20576;-69
2021/12/26 06:22:46;;;;;;;1.30;1.20;;;21.80;48.00;;;;;;5016414;28;20232;-69
2021/12/26 06:25:31;;;;;;;1.23;1.13;;;21.80;48.00;;;;;;5078017;23;20630;-71
2021/12/26 06:28:20;;;;;;;1.15;1.05;;;21.80;48.00;;;;;;5057709;28;20174;-71
2021/12/26 06:30:52;;;;;;;1.23;1.13;;;21.80;47.90;;;;;;5063483;28;20235;-71
2021/12/26 06:33:17;;;;;;;1.50;1.40;;;21.80;48.00;;;;;;5058631;28;20637;-71
2021/12/26 06:36:03;;;;;;;1.83;1.73;;;21.80;48.00;;;;;;5074882;28;20276;-71
2021/12/26 06:38:49;;;;;;;1.38;1.27;;;21.80;48.00;;;;;;5067474;28;20185;-71
2021/12/26 06:41:39;;;;;;;1.27;1.17;;;21.80;48.00;;;;;;5056209;28;20207;-71
2021/12/26 06:44:42;;;;;;;1.05;1.05;;;21.80;48.00;;;;;;5063388;28;20288;-71
2021/12/26 06:47:13;;;;;;;1.30;1.20;;;21.80;48.00;;;;;;5057880;28;20209;-71
2021/12/26 06:49:42;;;;;;;1.33;1.23;;;21.80;47.90;;;;;;5057603;28;20540;-71
2021/12/26 06:52:09;;;;;;;1.25;1.20;;;21.80;48.00;;;;;;5074614;28;20185;-71
2021/12/26 06:54:36;;;;;;;1.23;1.23;;;21.80;48.00;;;;;;5057593;28;20212;-71
2021/12/26 06:57:04;;;;;;;1.55;1.45;;;21.80;48.00;;;;;;5074392;28;20280;-71
2021/12/26 06:59:30;;;;;;;1.58;1.48;;;21.80;48.00;;;;;;5057523;28;20293;-72
2021/12/26 07:01:56;;;;;;;1.90;1.67;;;21.80;48.00;;;;;;5065941;28;20193;-71
2021/12/26 07:04:31;;;;;;;1.30;1.20;;;21.80;48.00;;;;;;5058816;28;20197;-71
2021/12/26 07:06:57;;;;;;;1.52;1.42;;;21.80;48.00;;;;;;5057427;28;20209;-71
2021/12/26 07:09:27;;;;;;;1.35;1.25;;;21.80;48.00;;;;;;5073679;28;20178;-72
2021/12/26 07:11:53;;;;;;;1.10;1.10;;;21.80;48.00;;;;;;5057629;28;20177;-71
2021/12/26 07:14:29;;;;;;;1.40;1.30;;;21.80;48.00;;;;;;5042063;28;20251;-71
2021/12/26 07:16:55;;;;;;;1.20;1.10;;;21.80;48.00;;;;;;5057291;28;20205;-71
2021/12/26 07:19:21;;;;;;;1.27;1.17;;;21.80;48.00;;;;;;5073721;28;20201;-71
2021/12/26 07:21:49;;;;;;;1.35;1.25;;;21.80;48.00;;;;;;5041053;28;20186;-71
2021/12/26 07:24:15;;;;;;;1.38;1.27;;;21.80;47.90;;;;;;5057268;28;20239;-71
2021/12/26 07:26:41;;;;;;;1.38;1.27;;;21.80;48.00;;;;;;5073981;28;20210;-71
2021/12/26 07:29:27;;;;;;;1.58;1.48;;;21.80;47.90;;;;;;5059919;28;20192;-71
2021/12/26 07:31:52;;;;;;;1.45;1.35;;;21.80;48.00;;;;;;5057035;28;20264;-71
2021/12/26 07:34:19;;;;;;;1.30;1.20;;;21.80;48.00;;;;;;5073629;28;20202;-71
2021/12/26 07:36:45;;;;;;;1.40;1.30;;;21.80;48.00;;;;;;5057223;28;20243;-71
2021/12/26 07:39:27;;;;;;;1.33;1.23;;;21.80;48.00;;;;;;5059943;28;20264;-71
2021/12/26 07:41:53;;;;;;;1.45;1.35;;;21.80;47.90;;;;;;5056981;28;20181;-70
2021/12/26 07:44:38;;;;;;;0.85;0.85;;;21.80;47.90;;;;;;5059493;28;20216;-71
2021/12/26 07:47:24;;;;;;;1.27;1.17;;;21.80;48.00;;;;;;5056676;28;20214;-71
2021/12/26 07:49:53;;;;;;;1.13;1.08;;;21.70;47.80;;;;;;5040886;28;20182;-70
2021/12/26 07:52:41;;;;;;;1.40;1.30;;;21.70;47.90;;;;;;5059286;28;20251;-71
2021/12/26 07:55:26;;;;;;;1.50;1.40;;;21.80;47.90;;;;;;5068140;28;20228;-71
2021/12/26 07:58:10;;;;;;;1.40;1.30;;;21.70;47.90;;;;;;5087711;28;20213;-72
2021/12/26 08:01:14;;;;;;;1.25;1.17;;;21.80;48.00;;;;;;5073570;28;20192;-70
2021/12/26 08:03:53;;;;;;;0.88;0.88;;;21.80;48.00;;;;;;5073259;28;20205;-71
2021/12/26 08:06:45;;;;;;;1.27;1.17;;;21.80;48.00;;;;;;5061154;28;20286;-71
2021/12/26 08:09:11;;;;;;;1.38;1.27;;;21.80;48.00;;;;;;5056478;28;20174;-71
2021/12/26 08:11:37;;;;;;;1.42;1.33;;;21.80;48.00;;;;;;5073115;28;20174;-71
2021/12/26 08:14:03;;;;;;;1.50;1.40;;;21.80;47.90;;;;;;5056338;28;20209;-72
2021/12/26 08:16:30;;;;;;;1.33;1.23;;;21.80;48.00;;;;;;5056178;28;20177;-72
2021/12/26 08:18:55;;;;;;;1.63;1.52;;;21.80;48.00;;;;;;5056272;28;20576;-71
2021/12/26 08:21:21;;;;;;;1.58;1.48;;;21.80;48.00;;;;;;5056318;28;20178;-71
2021/12/26 08:23:47;;;;;;;3.92;1.45;;;21.80;48.00;;;;;;5073589;28;20205;-71
2021/12/26 08:26:14;;;;;;;1.42;1.33;;;21.70;47.90;;;;;;5056295;28;20695;-71
2021/12/26 08:28:40;;;;;;;1.55;1.45;;;21.70;47.90;;;;;;5055682;28;20207;-71
2021/12/26 08:31:07;;;;;;;1.20;1.20;;;21.80;47.90;;;;;;5055741;28;20196;-71
2021/12/26 08:33:32;;;;;;;1.10;1.10;;;21.70;47.90;;;;;;5073629;28;20181;-71
2021/12/26 08:35:59;;;;;;;1.30;1.20;;;21.70;48.50;;;;;;5072384;28;20182;-72
2021/12/26 08:38:25;;;;;;;1.00;1.00;;;21.80;47.90;;;;;;5072306;28;20178;-72
2021/12/26 08:40:54;;;;;;;1.10;1.00;;;21.80;47.90;;;;;;5072621;28;20186;-72
2021/12/26 08:43:21;;;;;;;1.23;1.20;;;21.80;48.00;;;;;;5072479;28;20186;-70
2021/12/26 08:45:49;;;;;;;1.20;1.10;;;21.80;47.90;;;;;;5071720;28;20259;-72
2021/12/26 08:48:15;;;;;;;1.20;1.20;;;21.80;48.00;;;;;;5055292;28;20224;-72
2021/12/26 08:50:42;;;;;;;1.00;1.00;;;21.80;48.00;;;;;;5072175;28;20315;-72
2021/12/26 08:53:09;;;;;;;1.23;1.20;;;21.70;47.90;;;;;;5073389;28;20241;-72
2021/12/26 08:55:36;;;;;;;1.10;1.10;;;21.80;48.00;;;;;;5088932;28;20237;-72
2021/12/26 08:58:06;;;;;;;1.38;1.27;;;21.80;48.00;;;;;;5071820;28;20193;-72
2021/12/26 09:00:34;;;;;;;1.63;1.52;;;21.70;47.80;;;;;;5073137;28;20262;-72
2021/12/26 09:03:00;;;;;;;1.58;1.48;;;21.80;47.90;;;;;;5072070;28;20188;-72
2021/12/26 09:05:26;;;;;;;1.73;1.63;;;21.80;48.00;;;;;;5072062;28;20205;-72
2021/12/26 09:07:52;;;;;;;1.90;1.80;;;21.80;48.00;;;;;;5071589;28;20217;-72
2021/12/26 09:10:18;;;;;;;2.03;1.83;;;21.80;48.00;;;;;;5055089;28;20205;-71
2021/12/26 09:12:44;;;;;;;1.85;1.75;;;21.80;48.00;;;;;;5073044;28;20178;-72
2021/12/26 09:15:13;;;;;;;1.92;1.83;;;21.80;48.00;;;;;;5055103;28;20227;-71
2021/12/26 09:17:40;;;;;;;2.47;2.28;;;21.80;48.00;;;;;;5071542;28;20217;-72
2021/12/26 09:20:07;;;;;;;3.03;2.78;;;21.80;47.90;;;;;;5071671;28;20251;-71
2021/12/26 09:22:34;;;;;;;1.80;1.70;;;21.80;47.90;;;;;;5050959;28;20244;-72
2021/12/26 09:25:00;;;;;;;1.90;1.80;;;21.80;47.90;;;;;;5067319;28;20237;-72
2021/12/26 09:27:26;;;;;;;1.77;1.67;;;21.80;48.00;;;;;;5071423;28;20221;-73
2021/12/26 09:29:52;;;;;;;2.03;1.92;;;21.80;47.90;;;;;;5054867;28;20186;-70
2021/12/26 09:32:18;;;;;;;1.70;1.60;;;21.80;48.00;;;;;;5055095;28;20178;-72
2021/12/26 09:34:43;;;;;;;1.92;1.83;;;21.80;48.00;;;;;;5054875;28;20224;-72
2021/12/26 09:37:10;;;;;;;2.50;2.30;;;21.80;48.00;;;;;;5071302;28;20189;-72
2021/12/26 09:39:39;;;;;;;1.60;1.50;;;21.80;48.00;;;;;;5037938;28;20231;-72
2021/12/26 09:42:05;;;;;;;1.67;1.58;;;21.80;48.00;;;;;;5054934;28;20185;-72
2021/12/26 09:44:31;;;;;;;2.17;2.03;;;21.80;48.00;;;;;;5071220;28;20217;-72
2021/12/26 09:46:57;;;;;;;1.90;1.80;;;21.80;48.00;;;;;;5054493;28;20213;-72
2021/12/26 09:49:23;;;;;;;1.83;1.73;;;21.80;47.90;;;;;;5071358;28;20636;-72
2021/12/26 09:51:50;;;;;;;2.00;1.85;;;21.80;47.90;;;;;;5071332;28;20170;-72
2021/12/26 09:54:17;;;;;;;1.83;1.73;;;21.80;47.90;;;;;;5055606;28;20254;-72
2021/12/26 09:56:43;;;;;;;1.95;1.77;;;21.80;48.00;;;;;;5073805;28;20659;-72
2021/12/26 09:59:20;;;;;;;1.80;1.70;;;21.80;47.90;;;;;;5074296;28;20188;-71
2021/12/26 10:01:52;;;;;;;1.90;1.80;;;21.80;48.00;;;;;;5074518;28;20173;-72
2021/12/26 10:04:18;;;;;;;1.85;1.75;;;21.80;48.00;;;;;;5089843;28;20212;-71
2021/12/26 10:06:47;;;;;;;1.88;1.70;;;21.80;48.00;;;;;;5057353;28;20217;-69
2021/12/26 10:09:13;;;;;;;1.80;1.70;;;21.80;47.90;;;;;;5034155;28;20232;-70
2021/12/26 10:11:43;;;;;;;1.50;1.40;;;21.80;47.90;;;;;;5034409;28;20210;-72
2021/12/26 10:14:17;;;;;;;1.70;1.60;;;21.80;48.00;;;;;;5034278;28;20206;-72
2021/12/26 10:16:52;;;;;;;1.63;1.52;;;21.80;47.90;;;;;;5018317;28;20182;-72
2021/12/26 10:19:18;;;;;;;1.60;1.50;;;21.80;48.00;;;;;;5042232;28;20181;-72
2021/12/26 10:21:57;;;;;;;1.48;1.38;;;21.80;48.00;;;;;;5069964;28;20173;-73
2021/12/26 10:24:57;;;;;;;1.60;1.50;;;21.80;48.00;;;;;;5071314;28;20215;-71
2021/12/26 10:27:31;;;;;;;1.55;1.45;;;21.80;48.00;;;;;;5027701;28;20229;-71
2021/12/26 10:30:01;;;;;;;1.85;1.60;;;21.80;47.90;;;;;;5051281;28;20228;-71
2021/12/26 10:32:38;;;;;;;1.63;1.52;;;21.80;48.00;;;;;;5051030;28;20179;-72
2021/12/26 10:35:13;;;;;;;1.90;1.80;;;21.80;47.90;;;;;;5065319;28;20214;-72
2021/12/26 10:37:49;;;;;;;1.55;1.45;;;21.80;48.00;;;;;;5062688;28;20188;-72
2021/12/26 10:40:31;;;;;;;2.30;1.83;;;21.80;47.90;;;;;;5074439;28;20177;-72
2021/12/26 10:43:03;;;;;;;1.80;1.70;;;21.80;48.00;;;;;;5059686;28;20217;-71
2021/12/26 10:45:33;;;;;;;1.80;1.70;;;21.80;48.00;;;;;;5056914;28;20212;-73
2021/12/26 10:48:06;;;;;;;1.67;1.58;;;21.80;48.00;;;;;;5057375;28;20208;-71
2021/12/26 10:50:37;;;;;;;1.60;1.50;;;21.80;48.00;;;;;;5074131;28;20177;-72
2021/12/26 10:53:08;;;;;;;1.90;1.70;;;21.80;48.00;;;;;;5057314;28;20184;-71
2021/12/26 10:55:39;;;;;;;1.70;1.60;;;21.80;48.00;;;;;;5043673;28;20206;-72
2021/12/26 10:58:15;;;;;;;2.13;1.92;;;21.70;47.90;;;;;;5053576;28;20189;-72
2021/12/26 11:00:48;;;;;;;2.17;1.67;;;21.80;48.00;;;;;;5053866;28;20782;-72
2021/12/26 11:03:29;;;;;;;1.75;1.65;;;21.80;48.00;;;;;;5081077;28;20264;-72
2021/12/26 11:06:02;;;;;;;1.70;1.60;;;21.80;48.00;;;;;;5071878;28;20169;-72
2021/12/26 11:08:33;;;;;;;1.80;1.70;;;21.80;48.00;;;;;;5071820;28;20221;-71
2021/12/26 11:11:11;;;;;;;1.50;1.40;;;21.80;48.00;;;;;;5074202;28;20228;-72
2021/12/26 11:13:37;;;;;;;1.40;1.30;;;21.80;48.60;;;;;;5075631;28;20528;-72
2021/12/26 11:16:06;;;;;;;1.67;1.58;;;21.80;48.00;;;;;;5074315;28;20192;-72
2021/12/26 11:18:33;;;;;;;1.70;1.60;;;21.80;48.00;;;;;;5057250;28;20266;-72
2021/12/26 11:21:04;;;;;;;2.03;1.90;;;21.80;48.00;;;;;;5037379;28;20194;-72
2021/12/26 11:23:36;;;;;;;1.73;1.63;;;21.80;48.00;;;;;;5053691;28;20221;-70
2021/12/26 11:26:10;;;;;;;1.70;1.60;;;21.80;48.00;;;;;;5037094;28;20221;-72
2021/12/26 11:28:43;;;;;;;1.65;1.55;;;21.80;48.00;;;;;;5037104;28;20247;-72
2021/12/26 11:31:15;;;;;;;1.20;1.20;;;21.80;48.00;;;;;;5054951;28;20179;-72
2021/12/26 11:33:41;;;;;;;2.47;1.70;;;21.80;48.00;;;;;;5037126;28;20232;-72
2021/12/26 11:36:11;;;;;;;1.48;1.33;;;21.80;48.00;;;;;;5054851;28;20167;-72
2021/12/26 11:38:39;;;;;;;1.40;1.30;;;21.80;48.10;;;;;;5053420;28;20195;-72
2021/12/26 11:41:36;;;;;;;1.75;1.65;;;21.80;48.10;;;;;;5069148;28;20193;-72
2021/12/26 11:44:30;;;;;;;1.60;1.50;;;21.80;48.00;;;;;;5059745;28;20205;-72
2021/12/26 11:48:23;;;;;;;1.60;1.50;;;21.80;48.10;;;;;;5059466;28;20208;-72
2021/12/26 11:51:50;;;;;;;1.50;1.40;;;21.80;48.10;;;;;;5028262;28;20233;-72
2021/12/26 11:55:09;;;;;;;1.40;1.30;;;21.80;48.00;;;;;;5056527;28;20205;-72
2021/12/26 11:58:05;;;;;;;1.25;1.20;;;21.80;48.10;;;;;;5073394;28;20193;-71
2021/12/26 12:00:39;;;;;;;1.55;1.45;;;21.80;48.10;;;;;;5056735;28;20265;-71
2021/12/26 12:03:19;;;;;;;1.45;1.35;;;21.80;48.00;;;;;;5073167;28;20174;-72
2021/12/26 12:05:45;;;;;;;1.77;1.67;;;21.80;48.00;;;;;;5073124;28;20197;-72
2021/12/26 12:08:35;;;;;;;1.85;1.52;;;21.80;48.10;;;;;;5089857;28;20244;-71
2021/12/26 12:11:10;;;;;;;1.23;1.20;;;21.80;48.00;;;;;;5073439;28;20185;-72
2021/12/26 12:13:39;;;;;;;1.55;1.45;;;21.80;48.10;;;;;;5059459;28;20268;-72
2021/12/26 12:16:11;;;;;;;1.40;1.30;;;21.80;48.10;;;;;;5039665;28;20192;-72
2021/12/26 12:18:44;;;;;;;1.55;1.45;;;21.80;48.10;;;;;;5056803;28;20269;-71
2021/12/26 12:21:22;;;;;;;1.58;1.48;;;21.80;48.10;;;;;;5061073;28;20193;-71
2021/12/26 12:24:09;;;;;;;1.67;1.55;;;21.80;48.20;;;;;;5055801;28;20299;-71
2021/12/26 12:26:56;;;;;;;1.52;1.42;;;21.80;48.10;;;;;;5048935;28;20232;-72
2021/12/26 12:29:24;;;;;;;1.55;1.45;;;21.80;48.10;;;;;;5056112;28;20193;-72
2021/12/26 12:32:08;;;;;;;1.23;1.13;;;21.80;48.10;;;;;;5055810;28;20196;-72
2021/12/26 12:35:06;;;;;;;1.15;1.13;;;21.80;48.20;;;;;;5055901;28;20320;-72
2021/12/26 12:37:47;;;;;;;1.50;1.20;;;21.80;48.20;;;;;;5039790;28;20268;-71
2021/12/26 12:40:29;;;;;;;1.50;1.40;;;21.80;48.20;;;;;;5039098;28;20192;-69
2021/12/26 12:43:18;;;;;;;1.70;1.60;;;21.80;48.20;;;;;;5121069;22;20181;-71
2021/12/26 12:46:00;;;;;;;1.40;1.30;;;21.80;48.20;;;;;;5095845;28;20207;-72
2021/12/26 12:48:46;;;;;;;1.25;1.20;;;21.80;48.20;;;;;;5095293;28;20242;-71
2021/12/26 12:51:15;;;;;;;1.27;1.17;;;21.80;48.20;;;;;;5087597;28;20237;-71
2021/12/26 12:53:44;;;;;;;0.98;0.98;;;21.80;48.20;;;;;;5086018;28;20198;-71
2021/12/26 12:56:33;;;;;;;1.40;1.30;;;21.80;48.20;;;;;;5073303;28;20182;-71
2021/12/26 12:59:20;;;;;;;1.65;1.38;;;21.80;48.20;;;;;;5071991;28;20196;-71
2021/12/26 13:01:56;;;;;;;1.50;1.40;;;21.80;48.20;;;;;;5055518;28;20178;-72
2021/12/26 13:04:40;;;;;;;1.90;1.80;;;21.80;48.10;;;;;;5073327;28;20209;-72
2021/12/26 13:07:08;;;;;;;1.20;1.20;;;21.80;48.20;;;;;;5055635;28;20209;-72
2021/12/26 13:09:36;;;;;;;1.50;1.40;;;21.80;48.20;;;;;;5055362;28;20700;-72
2021/12/26 13:12:12;;;;;;;1.38;1.27;;;21.80;48.20;;;;;;5072314;28;20538;-72
2021/12/26 13:14:45;;;;;;;1.25;1.15;;;21.80;48.20;;;;;;5071616;28;20209;-72